sensor_id;sensor_type;location;lat;lon;timestamp;temperature;humidity
75010;DHT22;63564;46.840;18.336;2023-06-10T00:00:30;17.42;99.15
75010;DHT22;63564;46.840;18.336;2023-06-10T00:03:31;17.32;99.57
75010;DHT22;63564;46.840;18.336;2023-06-10T00:06:32;17.17;99.99
75010;DHT22;63564;46.840;18.336;2023-06-10T00:09:36;16.96;99.99
75010;DHT22;63564;46.840;18.336;2023-06-10T00:12:37;16.90;99.99
75010;DHT22;63564;46.840;18.336;2023-06-10T00:15:38;16.83;99.99
75010;DHT22;63564;46.840;18.336;2023-06-10T00:18:39;16.89;99.99
75010;DHT22;63564;46.840;18.336;2023-06-10T00:21:39;16.99;99.99
75010;DHT22;63564;46.840;18.336;2023-06-10T00:24:44;17.09;99.99
75010;DHT22;63564;46.840;18.336;2023-06-10T00:27:45;17.11;99.99
75010;DHT22;63564;46.840;18.336;2023-06-10T00:30:45;17.13;99.99
75010;DHT22;63564;46.840;18.336;2023-06-10T00:33:46;17.10;99.99
75010;DHT22;63564;46.840;18.336;2023-06-10T00:36:46;17.09;99.99
75010;DHT22;63564;46.840;18.336;2023-06-10T00:39:46;17.13;99.99
75010;DHT22;63564;46.840;18.336;2023-06-10T00:42:47;17.21;99.99
75010;DHT22;63564;46.840;18.336;2023-06-10T00:45:47;17.30;99.99
75010;DHT22;63564;46.840;18.336;2023-06-10T00:48:48;17.37;99.99
75010;DHT22;63564;46.840;18.336;2023-06-10T00:51:48;17.41;99.74
75010;DHT22;63564;46.840;18.336;2023-06-10T00:54:49;17.40;99.18
75010;DHT22;63564;46.840;18.336;2023-06-10T00:57:50;17.45;99.01
75010;DHT22;63564;46.840;18.336;2023-06-10T01:00:51;17.41;99.01
75010;DHT22;63564;46.840;18.336;2023-06-10T01:03:52;17.31;99.38
75010;DHT22;63564;46.840;18.336;2023-06-10T01:07:00;17.21;99.57
75010;DHT22;63564;46.840;18.336;2023-06-10T01:10:35;17.17;99.87
75010;DHT22;63564;46.840;18.336;2023-06-10T01:13:36;17.28;98.97
75010;DHT22;63564;46.840;18.336;2023-06-10T01:16:38;17.19;99.17
75010;DHT22;63564;46.840;18.336;2023-06-10T01:19:41;17.10;99.27
75010;DHT22;63564;46.840;18.336;2023-06-10T01:22:43;16.99;99.69
75010;DHT22;63564;46.840;18.336;2023-06-10T01:26:04;16.92;99.51
75010;DHT22;63564;46.840;18.336;2023-06-10T01:29:13;16.84;99.53
75010;DHT22;63564;46.840;18.336;2023-06-10T01:32:23;16.68;99.99
75010;DHT22;63564;46.840;18.336;2023-06-10T01:35:28;16.59;99.99
75010;DHT22;63564;46.840;18.336;2023-06-10T01:38:36;16.68;99.99
75010;DHT22;63564;46.840;18.336;2023-06-10T01:41:39;16.56;99.99
75010;DHT22;63564;46.840;18.336;2023-06-10T01:44:40;16.58;99.99
75010;DHT22;63564;46.840;18.336;2023-06-10T01:47:42;16.62;99.25
75010;DHT22;63564;46.840;18.336;2023-06-10T01:50:42;16.59;99.27
75010;DHT22;63564;46.840;18.336;2023-06-10T01:53:44;16.48;99.71
75010;DHT22;63564;46.840;18.336;2023-06-10T01:56:44;16.37;99.99
75010;DHT22;63564;46.840;18.336;2023-06-10T01:59:44;16.35;99.99
75010;DHT22;63564;46.840;18.336;2023-06-10T02:02:46;16.22;99.99
75010;DHT22;63564;46.840;18.336;2023-06-10T02:05:46;16.16;99.99
75010;DHT22;63564;46.840;18.336;2023-06-10T02:08:47;15.86;99.99
75010;DHT22;63564;46.840;18.336;2023-06-10T02:11:47;15.79;99.99
75010;DHT22;63564;46.840;18.336;2023-06-10T02:14:47;15.76;99.99
75010;DHT22;63564;46.840;18.336;2023-06-10T02:17:48;15.65;99.99
75010;DHT22;63564;46.840;18.336;2023-06-10T02:20:51;15.72;99.99
75010;DHT22;63564;46.840;18.336;2023-06-10T02:23:51;15.79;99.99
75010;DHT22;63564;46.840;18.336;2023-06-10T02:26:52;15.87;99.99
75010;DHT22;63564;46.840;18.336;2023-06-10T02:29:53;15.89;99.99
75010;DHT22;63564;46.840;18.336;2023-06-10T02:32:53;15.60;99.99
75010;DHT22;63564;46.840;18.336;2023-06-10T02:35:56;15.59;99.99
75010;DHT22;63564;46.840;18.336;2023-06-10T02:38:56;15.46;99.99
75010;DHT22;63564;46.840;18.336;2023-06-10T02:41:57;15.43;99.99
75010;DHT22;63564;46.840;18.336;2023-06-10T02:44:57;15.56;99.99
75010;DHT22;63564;46.840;18.336;2023-06-10T02:47:57;15.59;99.99
75010;DHT22;63564;46.840;18.336;2023-06-10T02:50:58;15.70;99.99
75010;DHT22;63564;46.840;18.336;2023-06-10T02:53:58;15.74;99.99
75010;DHT22;63564;46.840;18.336;2023-06-10T02:56:59;15.70;99.99
75010;DHT22;63564;46.840;18.336;2023-06-10T02:59:59;15.78;99.99
75010;DHT22;63564;46.840;18.336;2023-06-10T03:03:00;15.73;99.99
75010;DHT22;63564;46.840;18.336;2023-06-10T03:06:02;15.83;99.99
75010;DHT22;63564;46.840;18.336;2023-06-10T03:09:04;15.87;99.99
75010;DHT22;63564;46.840;18.336;2023-06-10T03:12:04;15.91;99.99
75010;DHT22;63564;46.840;18.336;2023-06-10T03:15:06;16.01;99.99
75010;DHT22;63564;46.840;18.336;2023-06-10T03:18:07;16.04;99.99
75010;DHT22;63564;46.840;18.336;2023-06-10T03:21:08;16.08;99.99
75010;DHT22;63564;46.840;18.336;2023-06-10T03:24:08;16.16;99.99
75010;DHT22;63564;46.840;18.336;2023-06-10T03:27:10;16.21;99.99
75010;DHT22;63564;46.840;18.336;2023-06-10T03:30:12;16.29;99.99
75010;DHT22;63564;46.840;18.336;2023-06-10T03:33:13;16.24;99.99
75010;DHT22;63564;46.840;18.336;2023-06-10T03:36:14;16.29;99.99
75010;DHT22;63564;46.840;18.336;2023-06-10T03:39:15;16.44;99.87
75010;DHT22;63564;46.840;18.336;2023-06-10T03:42:16;16.47;99.55
75010;DHT22;63564;46.840;18.336;2023-06-10T03:45:16;16.35;99.99
75010;DHT22;63564;46.840;18.336;2023-06-10T03:48:16;16.31;99.99
75010;DHT22;63564;46.840;18.336;2023-06-10T03:51:17;16.52;99.99
75010;DHT22;63564;46.840;18.336;2023-06-10T03:54:17;16.73;99.74
75010;DHT22;63564;46.840;18.336;2023-06-10T03:57:17;16.87;98.89
75010;DHT22;63564;46.840;18.336;2023-06-10T04:00:18;16.76;99.61
75010;DHT22;63564;46.840;18.336;2023-06-10T04:03:21;16.66;99.99
75010;DHT22;63564;46.840;18.336;2023-06-10T04:06:23;16.54;99.99
75010;DHT22;63564;46.840;18.336;2023-06-10T04:09:25;16.48;99.99
75010;DHT22;63564;46.840;18.336;2023-06-10T04:12:26;16.40;99.99
75010;DHT22;63564;46.840;18.336;2023-06-10T04:15:26;16.37;99.99
75010;DHT22;63564;46.840;18.336;2023-06-10T04:18:26;16.32;99.99
75010;DHT22;63564;46.840;18.336;2023-06-10T04:21:27;16.34;99.99
75010;DHT22;63564;46.840;18.336;2023-06-10T04:24:27;16.38;99.99
75010;DHT22;63564;46.840;18.336;2023-06-10T04:27:29;16.40;99.99
75010;DHT22;63564;46.840;18.336;2023-06-10T04:30:29;16.37;99.99
75010;DHT22;63564;46.840;18.336;2023-06-10T04:33:31;16.34;99.99
75010;DHT22;63564;46.840;18.336;2023-06-10T04:36:31;16.29;99.99
75010;DHT22;63564;46.840;18.336;2023-06-10T04:39:32;16.35;99.99
75010;DHT22;63564;46.840;18.336;2023-06-10T04:42:32;16.48;99.99
75010;DHT22;63564;46.840;18.336;2023-06-10T04:45:33;16.73;99.99
75010;DHT22;63564;46.840;18.336;2023-06-10T04:48:33;16.90;99.69
75010;DHT22;63564;46.840;18.336;2023-06-10T04:51:35;17.14;99.41
75010;DHT22;63564;46.840;18.336;2023-06-10T04:54:36;17.09;98.99
75010;DHT22;63564;46.840;18.336;2023-06-10T04:57:36;17.41;97.27
75010;DHT22;63564;46.840;18.336;2023-06-10T05:00:37;17.58;96.65
75010;DHT22;63564;46.840;18.336;2023-06-10T05:03:37;17.67;96.04
75010;DHT22;63564;46.840;18.336;2023-06-10T05:06:37;17.78;95.85
75010;DHT22;63564;46.840;18.336;2023-06-10T05:09:38;17.58;97.25
75010;DHT22;63564;46.840;18.336;2023-06-10T05:12:39;17.69;97.13
75010;DHT22;63564;46.840;18.336;2023-06-10T05:15:40;17.88;95.49
75010;DHT22;63564;46.840;18.336;2023-06-10T05:18:44;17.99;95.11
75010;DHT22;63564;46.840;18.336;2023-06-10T05:21:45;18.12;94.83
75010;DHT22;63564;46.840;18.336;2023-06-10T05:24:45;18.24;94.67
75010;DHT22;63564;46.840;18.336;2023-06-10T05:27:46;18.33;93.72
75010;DHT22;63564;46.840;18.336;2023-06-10T05:30:46;18.37;94.56
75010;DHT22;63564;46.840;18.336;2023-06-10T05:33:46;18.54;94.19
75010;DHT22;63564;46.840;18.336;2023-06-10T05:36:47;18.57;93.19
75010;DHT22;63564;46.840;18.336;2023-06-10T05:39:47;18.82;92.76
75010;DHT22;63564;46.840;18.336;2023-06-10T05:42:48;18.87;92.33
75010;DHT22;63564;46.840;18.336;2023-06-10T05:45:48;18.61;92.48
75010;DHT22;63564;46.840;18.336;2023-06-10T05:48:48;18.71;92.35
75010;DHT22;63564;46.840;18.336;2023-06-10T05:51:49;18.87;92.08
75010;DHT22;63564;46.840;18.336;2023-06-10T05:54:50;18.87;91.12
75010;DHT22;63564;46.840;18.336;2023-06-10T05:57:58;19.15;90.53
75010;DHT22;63564;46.840;18.336;2023-06-10T06:00:59;19.13;90.72
75010;DHT22;63564;46.840;18.336;2023-06-10T06:04:00;19.19;92.53
75010;DHT22;63564;46.840;18.336;2023-06-10T06:07:00;19.41;91.13
75010;DHT22;63564;46.840;18.336;2023-06-10T06:10:01;19.37;90.39
75010;DHT22;63564;46.840;18.336;2023-06-10T06:13:01;19.57;90.26
75010;DHT22;63564;46.840;18.336;2023-06-10T06:16:02;19.58;90.30
75010;DHT22;63564;46.840;18.336;2023-06-10T06:19:02;19.63;89.74
75010;DHT22;63564;46.840;18.336;2023-06-10T06:22:03;19.88;88.93
75010;DHT22;63564;46.840;18.336;2023-06-10T06:25:04;19.86;88.73
75010;DHT22;63564;46.840;18.336;2023-06-10T06:28:07;20.19;87.91
75010;DHT22;63564;46.840;18.336;2023-06-10T06:31:11;19.86;88.59
75010;DHT22;63564;46.840;18.336;2023-06-10T06:34:11;19.79;89.73
75010;DHT22;63564;46.840;18.336;2023-06-10T06:37:11;19.79;89.43
75010;DHT22;63564;46.840;18.336;2023-06-10T06:40:12;20.01;88.45
75010;DHT22;63564;46.840;18.336;2023-06-10T06:43:13;19.91;89.21
75010;DHT22;63564;46.840;18.336;2023-06-10T06:46:13;19.88;89.32
75010;DHT22;63564;46.840;18.336;2023-06-10T06:49:14;20.34;88.85
75010;DHT22;63564;46.840;18.336;2023-06-10T06:52:15;20.34;88.64
75010;DHT22;63564;46.840;18.336;2023-06-10T06:55:15;20.50;87.04
75010;DHT22;63564;46.840;18.336;2023-06-10T06:58:16;20.23;88.51
75010;DHT22;63564;46.840;18.336;2023-06-10T07:01:16;20.47;87.53
75010;DHT22;63564;46.840;18.336;2023-06-10T07:04:17;20.56;87.71
75010;DHT22;63564;46.840;18.336;2023-06-10T07:07:19;20.21;87.68
75010;DHT22;63564;46.840;18.336;2023-06-10T07:10:23;20.36;87.38
75010;DHT22;63564;46.840;18.336;2023-06-10T07:13:24;20.32;87.35
75010;DHT22;63564;46.840;18.336;2023-06-10T07:16:24;20.47;87.68
75010;DHT22;63564;46.840;18.336;2023-06-10T07:19:25;20.56;87.52
75010;DHT22;63564;46.840;18.336;2023-06-10T07:22:25;20.73;86.81
75010;DHT22;63564;46.840;18.336;2023-06-10T07:25:26;20.74;87.59
75010;DHT22;63564;46.840;18.336;2023-06-10T07:28:27;20.74;86.33
75010;DHT22;63564;46.840;18.336;2023-06-10T07:31:27;20.80;85.76
75010;DHT22;63564;46.840;18.336;2023-06-10T07:34:27;20.66;86.65
75010;DHT22;63564;46.840;18.336;2023-06-10T07:37:28;20.44;87.81
75010;DHT22;63564;46.840;18.336;2023-06-10T07:40:28;20.15;88.34
75010;DHT22;63564;46.840;18.336;2023-06-10T07:43:29;20.70;87.58
75010;DHT22;63564;46.840;18.336;2023-06-10T07:46:29;20.84;87.05
75010;DHT22;63564;46.840;18.336;2023-06-10T07:49:30;21.08;86.10
75010;DHT22;63564;46.840;18.336;2023-06-10T07:52:30;21.26;85.98
75010;DHT22;63564;46.840;18.336;2023-06-10T07:55:31;21.52;83.35
75010;DHT22;63564;46.840;18.336;2023-06-10T07:58:31;21.80;82.64
75010;DHT22;63564;46.840;18.336;2023-06-10T08:01:32;21.97;82.67
75010;DHT22;63564;46.840;18.336;2023-06-10T08:04:33;22.22;81.41
75010;DHT22;63564;46.840;18.336;2023-06-10T08:07:35;22.75;79.10
75010;DHT22;63564;46.840;18.336;2023-06-10T08:10:35;22.45;79.61
75010;DHT22;63564;46.840;18.336;2023-06-10T08:13:36;22.41;78.76
75010;DHT22;63564;46.840;18.336;2023-06-10T08:16:36;22.58;78.31
75010;DHT22;63564;46.840;18.336;2023-06-10T08:19:36;22.44;78.81
75010;DHT22;63564;46.840;18.336;2023-06-10T08:22:37;22.48;80.16
75010;DHT22;63564;46.840;18.336;2023-06-10T08:25:38;22.85;78.13
75010;DHT22;63564;46.840;18.336;2023-06-10T08:28:38;23.38;77.63
75010;DHT22;63564;46.840;18.336;2023-06-10T08:31:43;22.99;77.76
75010;DHT22;63564;46.840;18.336;2023-06-10T08:34:43;23.00;78.13
75010;DHT22;63564;46.840;18.336;2023-06-10T08:37:44;23.10;77.66
75010;DHT22;63564;46.840;18.336;2023-06-10T08:40:44;22.96;73.89
75010;DHT22;63564;46.840;18.336;2023-06-10T08:44:17;22.97;74.18
75010;DHT22;63564;46.840;18.336;2023-06-10T08:47:22;22.73;77.12
75010;DHT22;63564;46.840;18.336;2023-06-10T08:50:23;22.80;75.53
75010;DHT22;63564;46.840;18.336;2023-06-10T08:53:25;22.66;73.52
75010;DHT22;63564;46.840;18.336;2023-06-10T08:56:28;23.17;73.76
75010;DHT22;63564;46.840;18.336;2023-06-10T08:59:28;23.08;75.62
75010;DHT22;63564;46.840;18.336;2023-06-10T09:02:29;22.56;80.65
75010;DHT22;63564;46.840;18.336;2023-06-10T09:05:33;22.46;76.69
75010;DHT22;63564;46.840;18.336;2023-06-10T09:08:34;22.15;80.51
75010;DHT22;63564;46.840;18.336;2023-06-10T09:11:38;22.37;82.49
75010;DHT22;63564;46.840;18.336;2023-06-10T09:14:38;22.66;77.87
75010;DHT22;63564;46.840;18.336;2023-06-10T09:17:39;22.63;80.51
75010;DHT22;63564;46.840;18.336;2023-06-10T09:20:42;22.65;79.74
75010;DHT22;63564;46.840;18.336;2023-06-10T09:23:42;22.51;79.68
75010;DHT22;63564;46.840;18.336;2023-06-10T09:26:43;22.15;81.43
75010;DHT22;63564;46.840;18.336;2023-06-10T09:29:51;22.52;77.49
75010;DHT22;63564;46.840;18.336;2023-06-10T09:32:55;21.90;81.12
75010;DHT22;63564;46.840;18.336;2023-06-10T09:35:56;21.97;79.82
75010;DHT22;63564;46.840;18.336;2023-06-10T09:39:01;22.02;80.48
75010;DHT22;63564;46.840;18.336;2023-06-10T09:42:15;22.08;79.00
75010;DHT22;63564;46.840;18.336;2023-06-10T09:45:15;22.01;80.64
75010;DHT22;63564;46.840;18.336;2023-06-10T09:48:16;22.32;77.83
75010;DHT22;63564;46.840;18.336;2023-06-10T09:51:16;22.00;81.99
75010;DHT22;63564;46.840;18.336;2023-06-10T09:54:17;21.86;83.74
75010;DHT22;63564;46.840;18.336;2023-06-10T09:57:20;21.83;81.88
75010;DHT22;63564;46.840;18.336;2023-06-10T10:00:22;21.90;81.96
75010;DHT22;63564;46.840;18.336;2023-06-10T10:03:22;22.48;79.09
75010;DHT22;63564;46.840;18.336;2023-06-10T10:06:23;22.58;80.45
75010;DHT22;63564;46.840;18.336;2023-06-10T10:09:25;22.37;81.16
75010;DHT22;63564;46.840;18.336;2023-06-10T10:12:26;22.14;81.93
75010;DHT22;63564;46.840;18.336;2023-06-10T10:15:29;21.94;81.48
75010;DHT22;63564;46.840;18.336;2023-06-10T10:18:32;21.94;81.55
75010;DHT22;63564;46.840;18.336;2023-06-10T10:21:38;22.34;81.47
75010;DHT22;63564;46.840;18.336;2023-06-10T10:24:49;22.94;81.24
75010;DHT22;63564;46.840;18.336;2023-06-10T10:27:58;23.62;71.16
75010;DHT22;63564;46.840;18.336;2023-06-10T10:31:10;23.18;74.22
75010;DHT22;63564;46.840;18.336;2023-06-10T10:34:15;22.41;78.83
75010;DHT22;63564;46.840;18.336;2023-06-10T10:37:17;21.77;82.67
75010;DHT22;63564;46.840;18.336;2023-06-10T10:40:19;21.43;83.81
75010;DHT22;63564;46.840;18.336;2023-06-10T10:43:20;21.07;86.63
75010;DHT22;63564;46.840;18.336;2023-06-10T10:46:21;20.94;87.94
75010;DHT22;63564;46.840;18.336;2023-06-10T10:49:22;20.60;89.52
75010;DHT22;63564;46.840;18.336;2023-06-10T10:52:22;20.71;89.60
75010;DHT22;63564;46.840;18.336;2023-06-10T10:55:24;20.97;89.20
75010;DHT22;63564;46.840;18.336;2023-06-10T10:58:25;21.41;88.04
75010;DHT22;63564;46.840;18.336;2023-06-10T11:01:40;21.21;85.11
75010;DHT22;63564;46.840;18.336;2023-06-10T11:04:46;21.59;83.97
75010;DHT22;63564;46.840;18.336;2023-06-10T11:07:54;21.36;85.69
75010;DHT22;63564;46.840;18.336;2023-06-10T11:10:57;21.19;84.51
75010;DHT22;63564;46.840;18.336;2023-06-10T11:17:18;20.71;85.06
75010;DHT22;63564;46.840;18.336;2023-06-10T11:23:49;21.19;81.97
75010;DHT22;63564;46.840;18.336;2023-06-10T11:26:50;21.22;81.70
75010;DHT22;63564;46.840;18.336;2023-06-10T11:33:03;21.57;80.89
75010;DHT22;63564;46.840;18.336;2023-06-10T11:36:07;21.36;81.72
75010;DHT22;63564;46.840;18.336;2023-06-10T11:39:09;21.31;83.75
75010;DHT22;63564;46.840;18.336;2023-06-10T11:42:10;21.72;80.05
75010;DHT22;63564;46.840;18.336;2023-06-10T11:45:15;22.08;80.40
75010;DHT22;63564;46.840;18.336;2023-06-10T11:48:16;22.20;77.71
75010;DHT22;63564;46.840;18.336;2023-06-10T11:51:16;22.22;78.96
75010;DHT22;63564;46.840;18.336;2023-06-10T11:54:17;22.28;78.77
75010;DHT22;63564;46.840;18.336;2023-06-10T11:57:18;22.58;77.14
75010;DHT22;63564;46.840;18.336;2023-06-10T12:00:18;22.73;77.91
75010;DHT22;63564;46.840;18.336;2023-06-10T12:03:20;22.52;78.23
75010;DHT22;63564;46.840;18.336;2023-06-10T12:06:22;22.45;79.47
75010;DHT22;63564;46.840;18.336;2023-06-10T12:09:27;22.75;76.82
75010;DHT22;63564;46.840;18.336;2023-06-10T12:12:27;22.44;80.89
75010;DHT22;63564;46.840;18.336;2023-06-10T12:15:28;22.21;84.00
75010;DHT22;63564;46.840;18.336;2023-06-10T12:18:29;22.69;78.77
75010;DHT22;63564;46.840;18.336;2023-06-10T12:21:31;22.00;81.12
75010;DHT22;63564;46.840;18.336;2023-06-10T12:24:32;22.44;80.31
75010;DHT22;63564;46.840;18.336;2023-06-10T12:27:33;22.87;79.53
75010;DHT22;63564;46.840;18.336;2023-06-10T12:30:34;22.67;81.52
75010;DHT22;63564;46.840;18.336;2023-06-10T12:33:34;23.52;73.00
75010;DHT22;63564;46.840;18.336;2023-06-10T12:36:35;23.57;77.38
75010;DHT22;63564;46.840;18.336;2023-06-10T12:39:36;23.65;75.20
75010;DHT22;63564;46.840;18.336;2023-06-10T12:42:37;24.71;74.90
75010;DHT22;63564;46.840;18.336;2023-06-10T12:45:39;24.88;69.35
75010;DHT22;63564;46.840;18.336;2023-06-10T12:48:49;24.50;72.60
75010;DHT22;63564;46.840;18.336;2023-06-10T12:51:52;25.46;71.44
75010;DHT22;63564;46.840;18.336;2023-06-10T12:54:53;24.75;71.32
75010;DHT22;63564;46.840;18.336;2023-06-10T12:57:54;24.58;73.74
75010;DHT22;63564;46.840;18.336;2023-06-10T13:00:57;25.27;71.94
75010;DHT22;63564;46.840;18.336;2023-06-10T13:03:59;25.40;69.41
75010;DHT22;63564;46.840;18.336;2023-06-10T13:07:00;25.86;70.70
75010;DHT22;63564;46.840;18.336;2023-06-10T13:10:01;26.77;67.09
75010;DHT22;63564;46.840;18.336;2023-06-10T13:13:02;27.01;65.07
75010;DHT22;63564;46.840;18.336;2023-06-10T13:16:05;26.77;59.97
75010;DHT22;63564;46.840;18.336;2023-06-10T13:19:05;25.77;65.52
75010;DHT22;63564;46.840;18.336;2023-06-10T13:22:06;27.08;60.94
75010;DHT22;63564;46.840;18.336;2023-06-10T13:25:07;29.23;55.79
75010;DHT22;63564;46.840;18.336;2023-06-10T13:28:07;30.33;53.58
75010;DHT22;63564;46.840;18.336;2023-06-10T13:31:08;31.36;51.87
75010;DHT22;63564;46.840;18.336;2023-06-10T13:34:08;28.14;58.93
75010;DHT22;63564;46.840;18.336;2023-06-10T13:37:09;25.85;66.86
75010;DHT22;63564;46.840;18.336;2023-06-10T13:40:10;25.02;70.61
75010;DHT22;63564;46.840;18.336;2023-06-10T13:43:10;24.53;71.40
75010;DHT22;63564;46.840;18.336;2023-06-10T13:46:11;24.74;71.67
75010;DHT22;63564;46.840;18.336;2023-06-10T13:49:11;25.01;69.99
75010;DHT22;63564;46.840;18.336;2023-06-10T13:52:12;24.43;74.37
75010;DHT22;63564;46.840;18.336;2023-06-10T13:55:13;23.97;77.33
75010;DHT22;63564;46.840;18.336;2023-06-10T13:58:13;26.61;69.03
75010;DHT22;63564;46.840;18.336;2023-06-10T14:01:14;25.85;70.04
75010;DHT22;63564;46.840;18.336;2023-06-10T14:04:14;25.41;68.70
75010;DHT22;63564;46.840;18.336;2023-06-10T14:07:14;25.56;66.38
75010;DHT22;63564;46.840;18.336;2023-06-10T14:10:15;24.99;68.19
75010;DHT22;63564;46.840;18.336;2023-06-10T14:13:16;24.61;69.47
75010;DHT22;63564;46.840;18.336;2023-06-10T14:16:17;24.38;69.73
75010;DHT22;63564;46.840;18.336;2023-06-10T14:19:17;23.66;76.42
75010;DHT22;63564;46.840;18.336;2023-06-10T14:22:18;23.89;71.13
75010;DHT22;63564;46.840;18.336;2023-06-10T14:25:18;23.10;77.61
75010;DHT22;63564;46.840;18.336;2023-06-10T14:28:18;23.38;70.87
75010;DHT22;63564;46.840;18.336;2023-06-10T14:31:19;23.54;70.17
75010;DHT22;63564;46.840;18.336;2023-06-10T14:34:19;23.59;70.00
75010;DHT22;63564;46.840;18.336;2023-06-10T14:37:20;23.30;72.53
75010;DHT22;63564;46.840;18.336;2023-06-10T14:40:20;23.75;72.03
75010;DHT22;63564;46.840;18.336;2023-06-10T14:43:25;23.38;73.13
75010;DHT22;63564;46.840;18.336;2023-06-10T14:46:26;23.82;72.16
75010;DHT22;63564;46.840;18.336;2023-06-10T14:49:26;23.44;74.15
75010;DHT22;63564;46.840;18.336;2023-06-10T14:52:26;23.15;76.12
75010;DHT22;63564;46.840;18.336;2023-06-10T14:55:27;23.24;75.86
75010;DHT22;63564;46.840;18.336;2023-06-10T14:58:27;23.17;78.52
75010;DHT22;63564;46.840;18.336;2023-06-10T15:01:28;23.44;79.20
75010;DHT22;63564;46.840;18.336;2023-06-10T15:04:28;23.62;77.10
75010;DHT22;63564;46.840;18.336;2023-06-10T15:07:29;23.76;73.61
75010;DHT22;63564;46.840;18.336;2023-06-10T15:10:29;23.79;74.81
75010;DHT22;63564;46.840;18.336;2023-06-10T15:13:29;24.00;72.39
75010;DHT22;63564;46.840;18.336;2023-06-10T15:16:30;23.92;71.08
75010;DHT22;63564;46.840;18.336;2023-06-10T15:19:30;23.79;75.23
75010;DHT22;63564;46.840;18.336;2023-06-10T15:22:31;23.79;70.99
75010;DHT22;63564;46.840;18.336;2023-06-10T15:25:31;23.78;69.87
75010;DHT22;63564;46.840;18.336;2023-06-10T15:28:31;23.57;74.20
75010;DHT22;63564;46.840;18.336;2023-06-10T15:31:32;22.93;79.65
75010;DHT22;63564;46.840;18.336;2023-06-10T15:34:32;23.07;77.78
75010;DHT22;63564;46.840;18.336;2023-06-10T15:37:33;23.02;76.91
75010;DHT22;63564;46.840;18.336;2023-06-10T15:40:33;23.02;76.13
75010;DHT22;63564;46.840;18.336;2023-06-10T15:43:35;22.90;77.03
75010;DHT22;63564;46.840;18.336;2023-06-10T15:46:35;22.67;76.48
75010;DHT22;63564;46.840;18.336;2023-06-10T15:49:36;22.58;77.25
75010;DHT22;63564;46.840;18.336;2023-06-10T15:52:36;22.58;77.50
75010;DHT22;63564;46.840;18.336;2023-06-10T15:55:37;22.83;71.90
75010;DHT22;63564;46.840;18.336;2023-06-10T15:58:37;22.89;72.72
75010;DHT22;63564;46.840;18.336;2023-06-10T16:01:38;22.96;72.13
75010;DHT22;63564;46.840;18.336;2023-06-10T16:04:38;23.04;72.21
75010;DHT22;63564;46.840;18.336;2023-06-10T16:07:38;22.82;76.92
75010;DHT22;63564;46.840;18.336;2023-06-10T16:10:40;22.73;77.14
75010;DHT22;63564;46.840;18.336;2023-06-10T16:13:41;22.99;76.76
75010;DHT22;63564;46.840;18.336;2023-06-10T16:16:41;22.77;77.32
75010;DHT22;63564;46.840;18.336;2023-06-10T16:19:42;22.94;77.32
75010;DHT22;63564;46.840;18.336;2023-06-10T16:22:42;22.92;77.80
75010;DHT22;63564;46.840;18.336;2023-06-10T16:25:42;22.83;78.08
75010;DHT22;63564;46.840;18.336;2023-06-10T16:28:43;22.79;77.60
75010;DHT22;63564;46.840;18.336;2023-06-10T16:31:43;22.83;77.23
75010;DHT22;63564;46.840;18.336;2023-06-10T16:34:44;22.72;77.19
75010;DHT22;63564;46.840;18.336;2023-06-10T16:37:44;22.76;77.76
75010;DHT22;63564;46.840;18.336;2023-06-10T16:40:44;23.15;77.30
75010;DHT22;63564;46.840;18.336;2023-06-10T16:43:45;23.32;74.78
75010;DHT22;63564;46.840;18.336;2023-06-10T16:46:45;23.14;77.05
75010;DHT22;63564;46.840;18.336;2023-06-10T16:49:45;23.14;78.19
75010;DHT22;63564;46.840;18.336;2023-06-10T16:52:46;22.87;76.50
75010;DHT22;63564;46.840;18.336;2023-06-10T16:55:46;22.44;79.50
75010;DHT22;63564;46.840;18.336;2023-06-10T16:58:47;22.18;80.37
75010;DHT22;63564;46.840;18.336;2023-06-10T17:01:47;22.05;80.38
75010;DHT22;63564;46.840;18.336;2023-06-10T17:04:47;22.01;81.21
75010;DHT22;63564;46.840;18.336;2023-06-10T17:07:48;22.00;79.64
75010;DHT22;63564;46.840;18.336;2023-06-10T17:10:48;21.81;80.16
75010;DHT22;63564;46.840;18.336;2023-06-10T17:13:49;21.72;80.56
75010;DHT22;63564;46.840;18.336;2023-06-10T17:16:49;21.57;80.83
75010;DHT22;63564;46.840;18.336;2023-06-10T17:19:50;21.46;80.79
75010;DHT22;63564;46.840;18.336;2023-06-10T17:22:50;21.35;81.25
75010;DHT22;63564;46.840;18.336;2023-06-10T17:25:51;21.25;81.63
75010;DHT22;63564;46.840;18.336;2023-06-10T17:28:51;21.15;82.29
75010;DHT22;63564;46.840;18.336;2023-06-10T17:31:52;20.90;83.84
75010;DHT22;63564;46.840;18.336;2023-06-10T17:34:52;20.74;84.86
75010;DHT22;63564;46.840;18.336;2023-06-10T17:37:52;20.66;85.47
75010;DHT22;63564;46.840;18.336;2023-06-10T17:40:53;20.60;86.05
75010;DHT22;63564;46.840;18.336;2023-06-10T17:43:53;20.57;86.11
75010;DHT22;63564;46.840;18.336;2023-06-10T17:46:54;20.53;86.62
75010;DHT22;63564;46.840;18.336;2023-06-10T17:49:54;20.60;86.45
75010;DHT22;63564;46.840;18.336;2023-06-10T17:52:55;20.56;87.08
75010;DHT22;63564;46.840;18.336;2023-06-10T17:55:55;20.43;87.60
75010;DHT22;63564;46.840;18.336;2023-06-10T17:58:55;20.43;87.67
75010;DHT22;63564;46.840;18.336;2023-06-10T18:01:56;20.33;88.31
75010;DHT22;63564;46.840;18.336;2023-06-10T18:04:56;20.30;88.95
75010;DHT22;63564;46.840;18.336;2023-06-10T18:07:57;20.36;88.94
75010;DHT22;63564;46.840;18.336;2023-06-10T18:10:57;20.25;89.41
75010;DHT22;63564;46.840;18.336;2023-06-10T18:13:58;20.11;90.78
75010;DHT22;63564;46.840;18.336;2023-06-10T18:16:58;20.01;91.36
75010;DHT22;63564;46.840;18.336;2023-06-10T18:19:59;19.96;91.22
75010;DHT22;63564;46.840;18.336;2023-06-10T18:23:00;19.84;91.42
75010;DHT22;63564;46.840;18.336;2023-06-10T18:26:00;19.68;92.27
75010;DHT22;63564;46.840;18.336;2023-06-10T18:29:01;19.61;92.65
75010;DHT22;63564;46.840;18.336;2023-06-10T18:32:01;19.61;92.50
75010;DHT22;63564;46.840;18.336;2023-06-10T18:35:01;19.38;93.42
75010;DHT22;63564;46.840;18.336;2023-06-10T18:38:02;19.23;94.09
75010;DHT22;63564;46.840;18.336;2023-06-10T18:41:02;19.19;94.43
75010;DHT22;63564;46.840;18.336;2023-06-10T18:44:03;19.22;93.92
75010;DHT22;63564;46.840;18.336;2023-06-10T18:47:03;19.30;92.82
75010;DHT22;63564;46.840;18.336;2023-06-10T18:50:04;19.37;92.57
75010;DHT22;63564;46.840;18.336;2023-06-10T18:53:05;19.26;93.46
75010;DHT22;63564;46.840;18.336;2023-06-10T18:56:05;19.22;93.89